createdAt,value
2022-11-20T00:01:37.433Z,101256.13
2022-11-20T00:04:07.126Z,101220.66
2022-11-20T00:06:35.415Z,101234.50
2022-11-20T00:09:04.344Z,101233.25
2022-11-20T00:11:33.905Z,101238.63
2022-11-20T00:14:04.060Z,101233.75
2022-11-20T00:16:35.371Z,101237.97
2022-11-20T00:19:04.083Z,101204.69
2022-11-20T00:21:34.192Z,101232.47
2022-11-20T00:24:02.472Z,101167.00
2022-11-20T00:26:31.326Z,101205.25
2022-11-20T00:29:01.803Z,101221.31
2022-11-20T00:31:31.667Z,101203.63
2022-11-20T00:33:59.996Z,101209.09
2022-11-20T00:36:30.852Z,101204.63
2022-11-20T00:39:01.161Z,101214.41
2022-11-20T00:41:30.813Z,101211.59
2022-11-20T00:43:59.430Z,101196.66
2022-11-20T00:46:30.117Z,101226.06
2022-11-20T00:48:59.073Z,101210.00
2022-11-20T00:51:29.203Z,101213.16
2022-11-20T00:54:00.987Z,101219.16
2022-11-20T00:56:29.806Z,101217.06
2022-11-20T00:59:01.470Z,101221.28
2022-11-20T01:01:31.084Z,101186.50
2022-11-20T01:04:01.779Z,101214.59
2022-11-20T01:06:32.821Z,101198.59
2022-11-20T01:09:06.316Z,101187.22
2022-11-20T01:11:37.373Z,101201.63
2022-11-20T01:14:08.658Z,101203.09
2022-11-20T01:16:39.916Z,101209.06
2022-11-20T01:19:17.345Z,101205.25
2022-11-20T01:21:48.448Z,101214.97
2022-11-20T01:24:20.817Z,101213.00
2022-11-20T01:26:51.970Z,101087.19
2022-11-20T01:29:23.954Z,101206.59
2022-11-20T01:31:53.671Z,101207.00
2022-11-20T01:34:24.302Z,101217.81
2022-11-20T01:36:52.924Z,101199.84
2022-11-20T01:39:25.004Z,101194.66
2022-11-20T01:42:13.861Z,101204.63
2022-11-20T01:44:54.248Z,101206.34
2022-11-20T01:47:32.634Z,101206.19
2022-11-20T01:50:06.840Z,101194.59
2022-11-20T01:52:41.412Z,101193.88
2022-11-20T01:55:16.916Z,101195.63
2022-11-20T01:57:47.909Z,101191.22
2022-11-20T02:00:20.768Z,101198.97
2022-11-20T02:02:54.175Z,101193.03
2022-11-20T02:05:33.417Z,101178.84
2022-11-20T02:08:03.951Z,101201.06
2022-11-20T02:10:34.025Z,101196.91
2022-11-20T02:13:19.987Z,101143.78
2022-11-20T02:15:49.141Z,101198.84
2022-11-20T02:18:21.296Z,101093.41
2022-11-20T02:20:54.402Z,101150.50
2022-11-20T02:23:32.142Z,101186.22
2022-11-20T02:26:04.308Z,101151.66
2022-11-20T02:28:32.700Z,101180.19
2022-11-20T02:31:01.050Z,101173.34
2022-11-20T02:33:29.351Z,101134.44
2022-11-20T02:35:57.668Z,101106.28
2022-11-20T02:38:26.279Z,101169.06
2022-11-20T02:40:55.868Z,101166.34
2022-11-20T02:43:26.114Z,101156.97
2022-11-20T02:45:54.442Z,101152.38
2022-11-20T02:48:25.095Z,101166.06
2022-11-20T02:50:53.684Z,101155.06
2022-11-20T02:53:22.025Z,101163.75
2022-11-20T02:55:50.399Z,101147.03
2022-11-20T02:58:18.783Z,101116.75
2022-11-20T03:00:48.508Z,101149.84
2022-11-20T03:03:16.845Z,101148.59
2022-11-20T03:05:45.139Z,101144.22
2022-11-20T03:08:13.407Z,101144.19
2022-11-20T03:10:41.760Z,101146.94
2022-11-20T03:13:10.358Z,101015.59
2022-11-20T03:15:39.607Z,101134.63
2022-11-20T03:18:09.354Z,101138.63
2022-11-20T03:20:37.711Z,101119.38
2022-11-20T03:23:06.290Z,101135.75
2022-11-20T03:25:34.616Z,101136.75
2022-11-20T03:28:03.065Z,101123.66
2022-11-20T03:30:31.374Z,101124.38
2022-11-20T03:32:59.956Z,101129.81
2022-11-20T03:35:29.722Z,101093.91
2022-11-20T03:37:59.621Z,100980.69
2022-11-20T03:40:28.059Z,101119.31
2022-11-20T03:42:56.484Z,101116.72
2022-11-20T03:45:25.012Z,101107.75
2022-11-20T03:47:53.770Z,101106.41
2022-11-20T03:50:22.282Z,101096.09
2022-11-20T03:52:52.249Z,101071.47
2022-11-20T03:55:20.904Z,101121.44
2022-11-20T03:57:49.242Z,100935.31
2022-11-20T04:00:18.612Z,101078.84
2022-11-20T04:02:46.985Z,101064.44
2022-11-20T04:05:15.481Z,101071.00
2022-11-20T04:07:43.795Z,101073.47
2022-11-20T04:10:13.675Z,101061.78
2022-11-20T04:12:41.965Z,101048.44
2022-11-20T04:15:11.354Z,101044.13
2022-11-20T04:17:39.729Z,101011.84
2022-11-20T04:20:09.784Z,101043.03
2022-11-20T04:22:38.155Z,101053.66
2022-11-20T04:25:07.309Z,101052.59
2022-11-20T04:27:37.014Z,101051.06
2022-11-20T04:30:06.409Z,100945.59
2022-11-20T04:32:34.717Z,101059.81
2022-11-20T04:35:03.090Z,101072.31
2022-11-20T04:37:31.431Z,101076.06
2022-11-20T04:39:59.950Z,101050.53
2022-11-20T04:42:30.956Z,101069.13
2022-11-20T04:45:00.777Z,101069.63
2022-11-20T04:47:29.470Z,101031.00
2022-11-20T04:49:57.933Z,101066.38
2022-11-20T04:52:26.287Z,100969.03
2022-11-20T04:54:54.839Z,101045.19
2022-11-20T04:57:23.770Z,101057.94
2022-11-20T04:59:52.185Z,101071.72
2022-11-20T05:02:22.227Z,101056.41
2022-11-20T05:04:50.669Z,101055.56
2022-11-20T05:07:19.255Z,101062.56
2022-11-20T05:09:47.714Z,101064.34
2022-11-20T05:12:16.151Z,100976.75
2022-11-20T05:14:44.671Z,101056.63
2022-11-20T05:17:13.684Z,101062.06
2022-11-20T05:19:43.413Z,101049.91
2022-11-20T05:22:11.831Z,101071.75
2022-11-20T05:24:40.247Z,101057.88
2022-11-20T05:27:08.665Z,100997.50
2022-11-20T05:29:37.068Z,101061.22
2022-11-20T05:32:06.809Z,101044.50
2022-11-20T05:34:35.443Z,101047.56
2022-11-20T05:37:05.549Z,101027.19
2022-11-20T05:39:33.823Z,100925.53
2022-11-20T05:42:19.726Z,101029.06
2022-11-20T05:44:48.180Z,101017.91
2022-11-20T05:47:16.472Z,101028.56
2022-11-20T05:49:44.839Z,101033.94
2022-11-20T05:52:14.540Z,101026.19
2022-11-20T05:54:42.973Z,101006.63
2022-11-20T05:57:11.370Z,100996.03
2022-11-20T05:59:39.753Z,100983.69
2022-11-20T06:02:08.141Z,100971.53
2022-11-20T06:04:36.502Z,100979.53
2022-11-20T06:07:06.592Z,100947.50
2022-11-20T06:09:36.653Z,101005.22
2022-11-20T06:12:05.931Z,101009.59
2022-11-20T06:14:34.428Z,101001.69
2022-11-20T06:17:02.894Z,101000.78
2022-11-20T06:19:31.255Z,100995.25
2022-11-20T06:21:59.606Z,100989.03
2022-11-20T06:24:28.065Z,100980.53
2022-11-20T06:26:57.837Z,100985.66
2022-11-20T06:29:30.087Z,100990.69
2022-11-20T06:32:02.096Z,100975.22
2022-11-20T06:34:30.496Z,100984.69
2022-11-20T06:36:58.937Z,100978.56
2022-11-20T06:39:27.300Z,100971.66
2022-11-20T06:41:58.958Z,100977.94
2022-11-20T06:44:28.109Z,100980.69
2022-11-20T06:46:56.452Z,100989.38
2022-11-20T06:49:25.191Z,100991.94
2022-11-20T06:51:53.663Z,100986.34
2022-11-20T06:54:22.124Z,100998.03
2022-11-20T06:56:50.945Z,100992.16
2022-11-20T06:59:21.093Z,100984.06
2022-11-20T07:01:49.555Z,100984.06
2022-11-20T07:04:17.868Z,100988.59
2022-11-20T07:06:46.532Z,100987.19
2022-11-20T07:09:15.039Z,100922.75
2022-11-20T07:11:43.458Z,100992.91
2022-11-20T07:14:11.938Z,100978.91
2022-11-20T07:16:41.660Z,100978.44
2022-11-20T07:19:10.014Z,100967.22
2022-11-20T07:21:38.381Z,100936.34
2022-11-20T07:24:07.198Z,100972.22
2022-11-20T07:26:36.490Z,100981.09
2022-11-20T07:29:04.941Z,100971.31
2022-11-20T07:31:33.229Z,100946.94
2022-11-20T07:34:03.189Z,100978.97
2022-11-20T07:36:31.539Z,100976.34
2022-11-20T07:38:59.835Z,100977.78
2022-11-20T07:41:28.643Z,100984.34
2022-11-20T07:43:57.081Z,100982.00
2022-11-20T07:46:25.455Z,100990.06
2022-11-20T07:48:54.278Z,100984.31
2022-11-20T07:51:24.158Z,100972.25
2022-11-20T07:53:55.879Z,100984.47
2022-11-20T07:56:24.205Z,100967.34
2022-11-20T07:58:52.658Z,100843.13
2022-11-20T08:01:21.289Z,100972.00
2022-11-20T08:03:49.639Z,100986.50
2022-11-20T08:06:19.536Z,100956.34
2022-11-20T08:08:49.339Z,100969.75
2022-11-20T08:11:49.623Z,100970.59
2022-11-20T08:14:18.017Z,100992.50
2022-11-20T08:16:49.045Z,100978.22
2022-11-20T08:19:19.824Z,100965.28
2022-11-20T08:21:48.542Z,100976.84
2022-11-20T08:24:18.278Z,100972.63
2022-11-20T08:26:46.740Z,100971.97
2022-11-20T08:29:15.097Z,101002.66
2022-11-20T08:31:43.876Z,100933.00
2022-11-20T08:34:17.644Z,100959.72
2022-11-20T08:36:47.526Z,100988.75
2022-11-20T08:39:18.285Z,100824.19
2022-11-20T08:41:46.761Z,100960.91
2022-11-20T08:44:15.052Z,100964.56
2022-11-20T08:46:44.929Z,100957.09
2022-11-20T08:49:15.744Z,100879.28
2022-11-20T08:51:44.722Z,100949.22
2022-11-20T08:54:13.114Z,100951.16
2022-11-20T08:56:42.913Z,100956.66
2022-11-20T08:59:36.761Z,100927.66
2022-11-20T09:01:59.593Z,100953.97
2022-11-20T09:04:27.872Z,100935.56
2022-11-20T09:06:56.160Z,100931.22
2022-11-20T09:09:25.053Z,100946.53
2022-11-20T09:11:55.001Z,100939.72
2022-11-20T09:14:25.777Z,100943.41
2022-11-20T09:16:54.391Z,100950.50
2022-11-20T09:19:38.245Z,100939.22
2022-11-20T09:22:06.657Z,100931.31
2022-11-20T09:24:35.002Z,100920.53
2022-11-20T09:27:08.011Z,100914.50
2022-11-20T09:29:36.393Z,100912.28
2022-11-20T09:32:05.005Z,100874.28
2022-11-20T09:34:34.064Z,100886.84
2022-11-20T09:37:06.158Z,100884.19
2022-11-20T09:39:39.751Z,100887.13
2022-11-20T09:42:35.356Z,100890.13
2022-11-20T09:45:28.723Z,100882.75
2022-11-20T09:48:32.179Z,100863.41
2022-11-20T09:51:15.957Z,100852.06
2022-11-20T09:54:02.930Z,100862.81
2022-11-20T09:56:31.681Z,100832.56
2022-11-20T09:59:07.529Z,100846.50
2022-11-20T10:01:41.873Z,100853.00
2022-11-20T10:04:18.436Z,100830.66
2022-11-20T10:07:30.165Z,100832.75
2022-11-20T10:09:52.853Z,100822.94
2022-11-20T10:12:29.646Z,100817.56
2022-11-20T10:15:22.012Z,100808.97
2022-11-20T10:18:13.596Z,100810.91
2022-11-20T10:20:51.019Z,100773.94
2022-11-20T10:23:50.692Z,100793.63
2022-11-20T10:26:30.646Z,100800.38
2022-11-20T10:29:12.309Z,100798.81
2022-11-20T10:31:44.515Z,100795.16
2022-11-20T10:34:24.309Z,100819.44
2022-11-20T10:36:58.077Z,100797.34
2022-11-20T10:39:37.433Z,100796.69
2022-11-20T10:42:13.683Z,100774.75
2022-11-20T10:45:06.333Z,100766.75
2022-11-20T10:47:36.873Z,100764.72
2022-11-20T10:50:10.982Z,100764.25
2022-11-20T10:52:50.223Z,100767.56
2022-11-20T10:55:35.289Z,100750.91
2022-11-20T10:58:12.476Z,100755.19
2022-11-20T11:00:41.135Z,100742.72
2022-11-20T11:03:28.262Z,100742.19
2022-11-20T11:06:06.178Z,100729.13
2022-11-20T11:08:40.494Z,100727.59
2022-11-20T11:11:22.414Z,100696.75
2022-11-20T11:13:51.177Z,100715.31
2022-11-20T11:16:24.181Z,100697.53
2022-11-20T11:18:54.384Z,100704.47
2022-11-20T11:21:26.225Z,100690.69
2022-11-20T11:24:19.569Z,100684.91
2022-11-20T11:26:57.386Z,100629.91
2022-11-20T11:29:27.814Z,100638.84
2022-11-20T11:32:07.371Z,100635.53
2022-11-20T11:34:37.260Z,100638.69
2022-11-20T11:37:06.576Z,100640.63
2022-11-20T11:39:44.681Z,100626.91
2022-11-20T11:42:20.158Z,100626.91
2022-11-20T11:45:07.854Z,100620.78
2022-11-20T11:47:45.104Z,100625.41
2022-11-20T11:50:22.024Z,100625.31
2022-11-20T11:53:11.447Z,100623.09
2022-11-20T11:55:46.065Z,100618.03
2022-11-20T11:58:30.527Z,100623.84
2022-11-20T12:01:05.545Z,100624.91
2022-11-20T12:03:39.622Z,100618.00
2022-11-20T12:06:15.823Z,100606.66
2022-11-20T12:08:51.777Z,100613.69
2022-11-20T12:11:28.834Z,100480.50
2022-11-20T12:14:03.038Z,100602.19
2022-11-20T12:16:37.215Z,100587.66
2022-11-20T12:19:13.156Z,100591.84
2022-11-20T12:22:01.467Z,100582.28
2022-11-20T12:24:46.030Z,100429.44
2022-11-20T12:27:46.660Z,100565.06
2022-11-20T12:30:17.727Z,100566.66
2022-11-20T12:33:10.429Z,100556.19
2022-11-20T12:35:55.109Z,100551.84
2022-11-20T12:38:42.738Z,100537.84
2022-11-20T12:41:41.122Z,100527.16
2022-11-20T12:44:42.983Z,100529.91
2022-11-20T12:47:23.778Z,100524.69
2022-11-20T12:50:00.395Z,100530.91
2022-11-20T12:52:44.835Z,100513.47
2022-11-20T12:55:30.882Z,100390.00
2022-11-20T12:58:10.754Z,100501.00
2022-11-20T13:00:51.786Z,100505.53
2022-11-20T13:03:39.262Z,100451.69
2022-11-20T13:06:16.498Z,100501.38
2022-11-20T13:08:50.879Z,100488.28
2022-11-20T13:11:27.678Z,100482.13
2022-11-20T13:14:18.854Z,100487.47
2022-11-20T13:16:54.511Z,100476.88
2022-11-20T13:19:23.771Z,100465.50
2022-11-20T13:21:52.786Z,100467.28
2022-11-20T13:24:28.887Z,100441.84
2022-11-20T13:27:22.745Z,100435.81
2022-11-20T13:30:12.902Z,100455.19
2022-11-20T13:32:51.966Z,100452.50
2022-11-20T13:35:34.993Z,100329.56
2022-11-20T13:38:10.496Z,100415.75
2022-11-20T13:40:41.059Z,100424.59
2022-11-20T13:43:24.971Z,100414.91
2022-11-20T13:46:03.997Z,100418.69
2022-11-20T13:48:35.364Z,100410.03
2022-11-20T13:51:30.178Z,100404.88
2022-11-20T13:54:20.397Z,100372.72
2022-11-20T13:57:04.041Z,100369.97
2022-11-20T13:59:58.379Z,100368.25
2022-11-20T14:02:30.119Z,100365.78
2022-11-20T14:05:01.094Z,100299.13
2022-11-20T14:07:38.335Z,100352.47
2022-11-20T14:10:08.077Z,100349.47
2022-11-20T14:12:37.876Z,100345.09
2022-11-20T14:15:25.606Z,100338.88
2022-11-20T14:17:54.002Z,100333.50
2022-11-20T14:20:26.483Z,100302.91
2022-11-20T14:22:56.102Z,100302.94
2022-11-20T14:25:28.184Z,100292.63
2022-11-20T14:28:00.070Z,100303.97
2022-11-20T14:30:38.519Z,100301.41
2022-11-20T14:33:07.141Z,100293.25
2022-11-20T14:35:47.378Z,100292.50
2022-11-20T14:38:20.104Z,100276.72
2022-11-20T14:40:48.516Z,100264.47
2022-11-20T14:43:24.872Z,100267.22
2022-11-20T14:46:02.394Z,100263.78
2022-11-20T14:48:36.294Z,100271.69
2022-11-20T14:51:04.865Z,100260.31
2022-11-20T14:53:33.265Z,100251.44
2022-11-20T14:56:04.113Z,100232.34
2022-11-20T14:58:35.380Z,100240.16
2022-11-20T15:01:08.121Z,100227.22
2022-11-20T15:03:39.355Z,100228.97
2022-11-20T15:06:09.643Z,100214.88
2022-11-20T15:08:38.658Z,100234.19
2022-11-20T15:11:20.706Z,100215.84
2022-11-20T15:13:49.139Z,100208.88
2022-11-20T15:16:21.569Z,100208.94
2022-11-20T15:18:50.592Z,100074.81
2022-11-20T15:21:21.837Z,100196.63
2022-11-20T15:23:50.685Z,100176.56
2022-11-20T15:26:26.528Z,100173.94
2022-11-20T15:28:55.623Z,100166.97
2022-11-20T15:31:26.065Z,100187.25
2022-11-20T15:33:54.585Z,100172.41
2022-11-20T15:36:22.938Z,100174.31
2022-11-20T15:38:51.402Z,100176.16
2022-11-20T15:41:19.848Z,100177.09
2022-11-20T15:43:48.246Z,100157.00
2022-11-20T15:46:18.685Z,100180.69
2022-11-20T15:48:56.877Z,100179.88
2022-11-20T15:51:29.726Z,100177.28
2022-11-20T15:53:58.970Z,100181.66
2022-11-20T15:56:27.980Z,100139.63
2022-11-20T15:58:56.363Z,100177.31
2022-11-20T16:01:25.182Z,100186.06
2022-11-20T16:03:54.854Z,100197.44
2022-11-20T16:06:23.176Z,100200.06
2022-11-20T16:08:51.622Z,100197.44
2022-11-20T16:11:20.984Z,100178.19
2022-11-20T16:14:06.885Z,100181.69
2022-11-20T16:16:37.415Z,100201.81
2022-11-20T16:19:07.632Z,100138.75
2022-11-20T16:21:38.302Z,100206.19
2022-11-20T16:24:09.484Z,100216.69
2022-11-20T16:26:38.614Z,100218.44
2022-11-20T16:29:08.367Z,100207.09
2022-11-20T16:31:37.215Z,100200.94
2022-11-20T16:34:12.188Z,100208.84
2022-11-20T16:36:42.922Z,100214.06
2022-11-20T16:39:12.045Z,100205.31
2022-11-20T16:41:41.090Z,100214.06
2022-11-20T16:44:12.522Z,100228.09
2022-11-20T16:46:41.856Z,100215.84
2022-11-20T16:49:15.200Z,100215.84
2022-11-20T16:51:43.842Z,100214.06
2022-11-20T16:54:16.397Z,100221.09
2022-11-20T16:56:48.548Z,100233.34
2022-11-20T16:59:17.127Z,100183.44
2022-11-20T17:01:45.565Z,100243.00
2022-11-20T17:04:15.505Z,100239.50
2022-11-20T17:06:45.840Z,100249.16
2022-11-20T17:09:14.488Z,100253.53
2022-11-20T17:11:43.212Z,100255.28
2022-11-20T17:14:12.572Z,100243.00
2022-11-20T17:16:41.312Z,100264.94
2022-11-20T17:19:10.074Z,100162.41
2022-11-20T17:21:40.401Z,100258.81
2022-11-20T17:24:12.103Z,100264.06
2022-11-20T17:26:43.243Z,100286.84
2022-11-20T17:29:14.808Z,100255.28
2022-11-20T17:31:44.548Z,100143.16
2022-11-20T17:34:15.842Z,100273.69
2022-11-20T17:36:46.612Z,100250.06
2022-11-20T17:39:16.038Z,100257.91
2022-11-20T17:41:44.769Z,100229.88
2022-11-20T17:44:14.459Z,100260.56
2022-11-20T17:46:43.020Z,100258.78
2022-11-20T17:49:11.392Z,100264.06
2022-11-20T17:51:40.695Z,100270.19
2022-11-20T17:54:12.526Z,100268.41
2022-11-20T17:56:58.257Z,100268.41
2022-11-20T17:59:26.849Z,100167.69
2022-11-20T18:01:56.786Z,100271.06
2022-11-20T18:04:28.246Z,100275.44
2022-11-20T18:06:56.649Z,100299.97
2022-11-20T18:09:26.522Z,100278.97
2022-11-20T18:11:55.075Z,100283.31
2022-11-20T18:14:36.449Z,100294.72
2022-11-20T18:17:08.165Z,100304.34
2022-11-20T18:19:44.878Z,100245.66
2022-11-20T18:22:24.046Z,100269.31
2022-11-20T18:24:53.767Z,100277.22
2022-11-20T18:27:23.922Z,100269.34
2022-11-20T18:29:52.788Z,100270.19
2022-11-20T18:32:22.629Z,100264.06
2022-11-20T18:34:52.573Z,100262.28
2022-11-20T18:37:21.602Z,100254.41
2022-11-20T18:39:50.741Z,100254.41
2022-11-20T18:42:38.131Z,100261.44
2022-11-20T18:45:07.620Z,100261.41
2022-11-20T18:47:40.231Z,100261.44
2022-11-20T18:50:10.892Z,100250.91
2022-11-20T18:52:45.533Z,100248.28
2022-11-20T18:55:14.093Z,100248.16
2022-11-20T18:57:43.920Z,100270.03
2022-11-20T19:00:14.186Z,100260.47
2022-11-20T19:02:43.538Z,100268.38
2022-11-20T19:05:13.498Z,100264.00
2022-11-20T19:07:42.092Z,100265.75
2022-11-20T19:10:11.111Z,100263.97
2022-11-20T19:12:39.597Z,100263.91
2022-11-20T19:15:10.767Z,100277.00
2022-11-20T19:17:39.229Z,100250.78
2022-11-20T19:20:08.559Z,100267.47
2022-11-20T19:22:37.312Z,100250.78
2022-11-20T19:25:06.983Z,100277.97
2022-11-20T19:27:35.516Z,100281.44
2022-11-20T19:30:04.041Z,100284.09
2022-11-20T19:32:35.313Z,100280.59
2022-11-20T19:35:04.757Z,100249.94
2022-11-20T19:37:35.156Z,100275.31
2022-11-20T19:40:04.838Z,100221.84
2022-11-20T19:42:33.812Z,100270.91
2022-11-20T19:45:02.190Z,100278.75
2022-11-20T19:48:00.532Z,100291.06
2022-11-20T19:50:20.595Z,100281.47
2022-11-20T19:52:51.074Z,100235.97
2022-11-20T19:55:21.467Z,100297.25
2022-11-20T19:57:50.106Z,100284.16
2022-11-20T20:00:26.647Z,100273.53
2022-11-20T20:02:59.529Z,100278.78
2022-11-20T20:05:29.282Z,100267.47
2022-11-20T20:07:57.704Z,100170.97
2022-11-20T20:10:26.562Z,100277.94
2022-11-20T20:12:54.884Z,100283.25
2022-11-20T20:15:23.228Z,100272.69
2022-11-20T20:17:53.402Z,100285.00
2022-11-20T20:20:22.022Z,100252.59
2022-11-20T20:22:51.818Z,100158.84
2022-11-20T20:25:20.379Z,100262.31
2022-11-20T20:27:48.771Z,100250.81
2022-11-20T20:30:17.232Z,100270.78
2022-11-20T20:32:45.616Z,100274.09
2022-11-20T20:35:13.982Z,100274.78
2022-11-20T20:37:42.418Z,100281.63
2022-11-20T20:40:15.278Z,100271.06
2022-11-20T20:42:43.919Z,100250.06
2022-11-20T20:45:12.821Z,100282.19
2022-11-20T20:47:42.622Z,100280.44
2022-11-20T20:50:13.283Z,100285.66
2022-11-20T20:52:41.621Z,100289.94
2022-11-20T20:55:12.688Z,100282.81
2022-11-20T20:57:41.964Z,100301.22
2022-11-20T21:00:11.351Z,100293.16
2022-11-20T21:02:39.887Z,100295.72
2022-11-20T21:05:09.190Z,100290.41
2022-11-20T21:07:58.340Z,100265.91
2022-11-20T21:10:28.327Z,100292.09
2022-11-20T21:12:56.750Z,100301.69
2022-11-20T21:15:25.069Z,100304.34
2022-11-20T21:17:53.423Z,100306.13
2022-11-20T21:20:39.512Z,100309.56
2022-11-20T21:23:11.139Z,100316.53
2022-11-20T21:25:41.372Z,100299.94
2022-11-20T21:28:13.150Z,100312.22
2022-11-20T21:30:45.463Z,100306.94
2022-11-20T21:33:13.869Z,100318.31
2022-11-20T21:35:42.381Z,100317.25
2022-11-20T21:38:11.130Z,100325.13
2022-11-20T21:40:40.890Z,100325.03
2022-11-20T21:43:09.237Z,100305.75
2022-11-20T21:45:37.683Z,100315.41
2022-11-20T21:48:07.610Z,100321.66
2022-11-20T21:50:36.344Z,100325.13
2022-11-20T21:53:04.825Z,100326.03
2022-11-20T21:55:33.129Z,100326.97
2022-11-20T21:58:02.842Z,100319.16
2022-11-20T22:00:31.309Z,100334.84
2022-11-20T22:02:59.593Z,100311.19
2022-11-20T22:05:28.015Z,100256.25
2022-11-20T22:07:56.420Z,100229.97
2022-11-20T22:10:24.756Z,100242.19
2022-11-20T22:13:16.327Z,100348.25
2022-11-20T22:16:00.372Z,100338.50
2022-11-20T22:18:29.497Z,100351.69
2022-11-20T22:20:57.836Z,100349.88
2022-11-20T22:23:26.257Z,100352.59
2022-11-20T22:25:54.885Z,100361.41
2022-11-20T22:28:23.283Z,100348.19
2022-11-20T22:30:52.929Z,100357.91
2022-11-20T22:33:21.460Z,100353.66
2022-11-20T22:35:49.766Z,100243.38
2022-11-20T22:38:18.066Z,100364.91
2022-11-20T22:40:46.813Z,100366.66
2022-11-20T22:43:16.215Z,100372.84
2022-11-20T22:45:45.658Z,100354.47
2022-11-20T22:48:15.540Z,100367.56
2022-11-20T22:50:43.866Z,100366.69
2022-11-20T22:53:12.140Z,100384.28
2022-11-20T22:55:40.538Z,100326.78
2022-11-20T22:58:08.845Z,100390.09
2022-11-20T23:00:37.168Z,100404.47
2022-11-20T23:03:05.515Z,100397.63
2022-11-20T23:05:35.315Z,100408.16
2022-11-20T23:08:03.718Z,100400.22
2022-11-20T23:10:32.212Z,100407.25
2022-11-20T23:13:00.524Z,100402.72
2022-11-20T23:15:28.843Z,100404.47
2022-11-20T23:17:57.155Z,100428.00
2022-11-20T23:20:25.566Z,100425.16
2022-11-20T23:22:55.270Z,100245.75
2022-11-20T23:25:23.624Z,100456.75
2022-11-20T23:27:51.967Z,100447.16
2022-11-20T23:30:20.557Z,100442.75
2022-11-20T23:32:48.961Z,100435.78
2022-11-20T23:35:17.478Z,100447.28
2022-11-20T23:37:45.733Z,100458.78
2022-11-20T23:40:15.947Z,100444.03
2022-11-20T23:43:04.289Z,100465.03
2022-11-20T23:45:32.639Z,100487.09
2022-11-20T23:48:00.936Z,100474.91
2022-11-20T23:50:29.238Z,100473.22
2022-11-20T23:52:57.552Z,100467.09
2022-11-20T23:55:27.386Z,100461.88
2022-11-20T23:57:55.756Z,100474.22
